Time;durP1;ratioP1;P1;durP2;ratioP2;P2;SDS_P1;SDS_P2;PMS_P1;PMS_P2;Temp;Humidity;BMP_temperature;BMP_pressure;BME280_temperature;BME280_humidity;BME280_pressure;Samples;Min_cycle;Max_cycle;Signal;HPM_P1;HPM_P2
2022/07/28 00:02:15;;;;;;;8.80;6.05;;;;;;;24.33;45.58;93805.69;5124725;28;20033;-77
2022/07/28 00:04:40;;;;;;;9.85;5.72;;;;;;;24.39;45.89;93814.97;5124645;28;20061;-75
2022/07/28 00:07:06;;;;;;;9.70;5.55;;;;;;;24.39;47.36;93825.84;5124692;28;20035;-77
2022/07/28 00:09:32;;;;;;;13.82;6.38;;;;;;;24.31;49.17;93837.22;5123420;28;20091;-77
2022/07/28 00:11:57;;;;;;;8.75;5.78;;;;;;;24.25;51.77;93842.31;5124813;28;20019;-77
2022/07/28 00:14:23;;;;;;;7.13;5.75;;;;;;;23.99;52.56;93849.09;5124580;28;20020;-77
2022/07/28 00:16:49;;;;;;;13.40;6.65;;;;;;;23.82;55.11;93865.16;5124412;28;20043;-78
2022/07/28 00:19:15;;;;;;;13.18;7.03;;;;;;;23.61;56.86;93855.13;5124669;28;20028;-77
2022/07/28 00:21:40;;;;;;;10.73;6.13;;;;;;;23.37;55.19;93848.63;5124714;28;20306;-77
2022/07/28 00:24:06;;;;;;;10.68;7.10;;;;;;;23.37;58.97;93845.13;5124362;28;20015;-76
2022/07/28 00:26:31;;;;;;;10.35;6.20;;;;;;;23.29;57.02;93838.94;5124073;28;20024;-75
2022/07/28 00:28:57;;;;;;;8.10;6.50;;;;;;;23.21;59.78;93838.19;5124529;28;20023;-76
2022/07/28 00:31:22;;;;;;;17.48;8.93;;;;;;;23.19;61.11;93845.97;5124333;28;20213;-76
2022/07/28 00:33:48;;;;;;;18.98;10.32;;;;;;;23.12;62.07;93835.13;5122945;28;20023;-75
2022/07/28 00:36:13;;;;;;;14.80;10.35;;;;;;;23.06;62.42;93836.69;5124115;28;20023;-76
2022/07/28 00:38:40;;;;;;;15.88;9.70;;;;;;;23.01;63.75;93827.00;5124162;28;20043;-76
2022/07/28 00:41:11;;;;;;;15.10;8.98;;;;;;;22.93;64.17;93814.56;5124251;28;20016;-79
2022/07/28 00:43:38;;;;;;;22.15;9.90;;;;;;;22.89;65.06;93823.91;5124193;28;20057;-79
2022/07/28 00:46:03;;;;;;;16.27;9.27;;;;;;;22.66;66.02;93824.34;5124092;28;20023;-79
2022/07/28 00:48:29;;;;;;;18.17;8.57;;;;;;;22.47;66.61;93834.47;5124301;28;20019;-79
2022/07/28 00:50:55;;;;;;;14.85;8.98;;;;;;;22.35;66.58;93843.78;5124061;28;20019;-79
2022/07/28 00:53:22;;;;;;;17.65;10.73;;;;;;;22.37;67.46;93851.53;5124162;28;20027;-79
2022/07/28 00:55:47;;;;;;;18.92;9.57;;;;;;;22.27;68.05;93871.28;5123992;28;20027;-79
2022/07/28 00:58:13;;;;;;;14.90;9.93;;;;;;;22.21;68.93;93870.88;5123908;28;20067;-79
2022/07/28 01:00:38;;;;;;;12.05;10.43;;;;;;;22.12;68.99;93876.66;5123838;28;20055;-79
2022/07/28 01:03:05;;;;;;;15.68;9.68;;;;;;;22.09;68.67;93880.16;5123768;27;20023;-78
2022/07/28 01:05:49;;;;;;;14.40;9.38;;;;;;;22.08;69.25;93888.69;5123821;28;20023;-79
2022/07/28 01:08:35;;;;;;;19.50;10.43;;;;;;;22.04;70.56;93892.19;5123945;28;20024;-78
2022/07/28 01:11:05;;;;;;;17.33;10.43;;;;;;;21.98;70.55;93882.06;5124059;28;20030;-78
2022/07/28 01:13:53;;;;;;;17.67;10.18;;;;;;;21.94;69.72;93884.00;5123856;28;20027;-78
2022/07/28 01:16:19;;;;;;;21.85;10.77;;;;;;;21.93;69.71;93883.25;5123302;28;20252;-78
2022/07/28 01:18:56;;;;;;;13.80;9.57;;;;;;;21.93;70.28;93877.81;5123317;28;20095;-77
2022/07/28 01:21:31;;;;;;;20.38;10.38;;;;;;;21.89;69.79;93877.03;5123469;28;20344;-76
2022/07/28 01:24:06;;;;;;;23.88;11.55;;;;;;;21.81;70.03;93870.81;5123524;28;20111;-75
2022/07/28 01:26:47;;;;;;;18.80;11.10;;;;;;;21.74;71.22;93854.53;5123116;28;20026;-75
2022/07/28 01:29:21;;;;;;;20.50;10.60;;;;;;;21.75;71.33;93849.88;5122971;28;20023;-76
2022/07/28 01:32:18;;;;;;;25.52;9.98;;;;;;;21.70;71.97;93847.53;5123042;28;20023;-76
2022/07/28 01:34:57;;;;;;;15.45;10.55;;;;;;;21.58;72.17;93845.97;5120846;28;20032;-76
2022/07/28 01:37:29;;;;;;;17.40;10.07;;;;;;;21.55;72.85;93844.00;5123189;28;20073;-79
2022/07/28 01:40:06;;;;;;;20.92;10.30;;;;;;;21.57;73.54;93849.81;5123076;28;20222;-78
2022/07/28 01:42:36;;;;;;;16.60;9.82;;;;;;;21.59;73.46;93847.50;5123323;28;20099;-77
2022/07/28 01:45:03;;;;;;;19.52;10.98;;;;;;;21.56;73.67;93851.75;5123058;28;20282;-76
2022/07/28 01:47:30;;;;;;;16.70;9.60;;;;;;;21.44;72.50;93842.03;5123054;28;20047;-76
2022/07/28 01:49:59;;;;;;;20.08;10.73;;;;;;;21.29;72.53;93845.03;5123148;28;20091;-77
2022/07/28 01:52:26;;;;;;;23.20;10.35;;;;;;;21.16;72.85;93842.66;5123070;28;20046;-77
2022/07/28 01:54:53;;;;;;;12.75;9.75;;;;;;;21.11;73.86;93848.47;5122995;28;20210;-77
2022/07/28 01:57:20;;;;;;;13.80;9.88;;;;;;;21.06;73.89;93848.03;5123081;28;20047;-77
2022/07/28 01:59:47;;;;;;;16.20;10.85;;;;;;;21.07;74.59;93844.97;5122971;28;20085;-77
2022/07/28 02:02:16;;;;;;;13.45;10.75;;;;;;;21.09;75.57;93853.50;5122670;28;20032;-75
2022/07/28 02:04:43;;;;;;;16.15;11.15;;;;;;;21.14;75.43;93849.63;5122818;28;20046;-75
2022/07/28 02:07:10;;;;;;;17.58;10.75;;;;;;;21.17;75.36;93857.78;5122910;28;20027;-75
2022/07/28 02:09:37;;;;;;;15.98;10.80;;;;;;;21.24;75.50;93865.16;5122767;28;20078;-75
2022/07/28 02:12:07;;;;;;;13.82;10.05;;;;;;;21.29;75.76;93859.38;5123046;28;20031;-75
2022/07/28 02:14:35;;;;;;;14.68;10.60;;;;;;;21.26;75.70;93862.06;5122992;28;20031;-76
2022/07/28 02:17:24;;;;;;;15.35;10.30;;;;;;;21.23;75.66;93863.63;5122875;28;20256;-76
2022/07/28 02:19:52;;;;;;;12.57;8.90;;;;;;;21.25;75.83;93858.59;5123105;28;20024;-76
2022/07/28 02:22:19;;;;;;;12.13;8.73;;;;;;;21.27;74.08;93850.06;5123083;28;20214;-76
2022/07/28 02:24:46;;;;;;;12.90;9.10;;;;;;;21.31;73.68;93854.38;5122880;28;20344;-77
2022/07/28 02:27:52;;;;;;;12.43;9.43;;;;;;;21.36;74.06;93866.75;5122929;28;20019;-75
2022/07/28 02:30:26;;;;;;;15.18;10.40;;;;;;;21.37;74.72;93871.00;5100286;28;20099;-76
2022/07/28 02:33:00;;;;;;;13.38;10.23;;;;;;;21.36;74.74;93872.97;5123395;28;20044;-77
2022/07/28 02:35:31;;;;;;;13.85;8.70;;;;;;;21.35;74.52;93866.00;5126537;28;20016;-77
2022/07/28 02:38:00;;;;;;;12.00;8.13;;;;;;;21.36;73.94;93872.97;5126955;28;20019;-77
2022/07/28 02:40:32;;;;;;;11.43;8.38;;;;;;;21.40;73.09;93862.91;5126853;28;20459;-75
2022/07/28 02:42:58;;;;;;;13.68;9.10;;;;;;;21.41;72.69;93872.59;5126857;28;20026;-75
2022/07/28 02:45:27;;;;;;;11.73;8.75;;;;;;;21.45;72.52;93864.50;5126388;28;20028;-76
2022/07/28 02:47:59;;;;;;;11.05;7.53;;;;;;;21.44;72.72;93865.66;5126298;28;20023;-75
2022/07/28 02:50:27;;;;;;;11.50;8.40;;;;;;;21.49;72.87;93869.94;5126508;28;20019;-76
2022/07/28 02:52:58;;;;;;;18.15;9.00;;;;;;;21.50;72.79;93866.09;5126422;28;20237;-76
2022/07/28 02:55:24;;;;;;;11.00;8.18;;;;;;;21.52;72.64;93869.19;5126287;28;20209;-76
2022/07/28 02:57:51;;;;;;;11.38;7.65;;;;;;;21.57;72.10;93882.34;5126243;28;20314;-76
2022/07/28 03:00:17;;;;;;;11.52;8.23;;;;;;;21.59;71.74;93886.22;5126181;28;20019;-76
2022/07/28 03:02:45;;;;;;;11.60;8.05;;;;;;;21.55;72.51;93887.38;5126052;28;20034;-76
2022/07/28 03:05:13;;;;;;;11.80;8.73;;;;;;;21.53;72.58;93889.72;5126076;27;20098;-76
2022/07/28 03:07:40;;;;;;;12.75;8.93;;;;;;;21.54;71.44;93894.75;5126040;28;20028;-76
2022/07/28 03:10:06;;;;;;;11.13;7.72;;;;;;;21.55;71.43;93890.09;5126116;28;20035;-76
2022/07/28 03:12:31;;;;;;;13.23;7.50;;;;;;;21.54;72.16;93896.69;5125896;28;20028;-76
2022/07/28 03:14:57;;;;;;;13.93;7.68;;;;;;;21.55;72.04;93892.81;5126190;28;20024;-76
2022/07/28 03:17:22;;;;;;;13.77;8.90;;;;;;;21.49;72.56;93880.78;5125876;28;20047;-76
2022/07/28 03:19:48;;;;;;;11.00;8.32;;;;;;;21.41;72.38;93883.44;5126089;28;20080;-77
2022/07/28 03:22:14;;;;;;;11.90;8.75;;;;;;;21.45;71.69;93875.34;5125715;28;20186;-76
2022/07/28 03:24:43;;;;;;;11.73;8.02;;;;;;;21.43;71.03;93877.66;5125635;28;20031;-76
2022/07/28 03:27:24;;;;;;;11.18;8.18;;;;;;;21.41;70.50;93882.66;5125741;28;20030;-76
2022/07/28 03:29:57;;;;;;;11.13;8.68;;;;;;;21.38;70.53;93875.28;5125762;28;20073;-76
2022/07/28 03:32:26;;;;;;;10.55;8.20;;;;;;;21.39;70.51;93882.25;5125516;28;20027;-76
2022/07/28 03:34:51;;;;;;;13.13;8.77;;;;;;;21.34;69.91;93869.84;5125337;28;20027;-77
2022/07/28 03:37:27;;;;;;;13.35;8.20;;;;;;;21.39;69.91;93868.69;5125579;28;20313;-76
2022/07/28 03:39:55;;;;;;;14.65;9.05;;;;;;;21.38;69.72;93862.50;5125439;28;20043;-76
2022/07/28 03:42:22;;;;;;;11.02;8.23;;;;;;;21.40;69.12;93867.56;5125046;28;20032;-76
2022/07/28 03:44:49;;;;;;;12.68;8.85;;;;;;;21.33;69.08;93857.47;5124422;28;20039;-76
2022/07/28 03:47:19;;;;;;;10.60;8.38;;;;;;;21.32;69.24;93849.72;5125044;27;20370;-76
2022/07/28 03:49:45;;;;;;;13.85;9.07;;;;;;;21.29;69.08;93853.97;5125177;28;20023;-76
2022/07/28 03:52:10;;;;;;;11.63;8.90;;;;;;;21.30;68.57;93843.91;5125219;28;20072;-76
2022/07/28 03:54:35;;;;;;;11.35;8.27;;;;;;;21.22;68.59;93832.25;5125214;28;20118;-77
2022/07/28 03:57:01;;;;;;;12.98;8.23;;;;;;;21.20;68.73;93818.28;5125285;28;20023;-77
2022/07/28 03:59:26;;;;;;;10.65;7.57;;;;;;;21.19;68.04;93814.03;5124848;28;20024;-77
2022/07/28 04:01:54;;;;;;;10.13;7.97;;;;;;;21.19;68.30;93803.22;5123858;28;20229;-77
2022/07/28 04:04:19;;;;;;;12.95;7.82;;;;;;;21.18;68.07;93793.50;5124849;28;20026;-76
2022/07/28 04:06:45;;;;;;;20.02;7.95;;;;;;;21.23;68.31;93774.19;5124735;28;20028;-76
2022/07/28 04:09:10;;;;;;;13.32;9.32;;;;;;;21.16;69.57;93776.84;5124802;28;20042;-76
2022/07/28 04:11:35;;;;;;;12.13;8.00;;;;;;;21.10;69.73;93760.19;5123644;28;20305;-76
2022/07/28 04:14:01;;;;;;;9.80;8.52;;;;;;;21.07;69.59;93763.66;5125078;28;20023;-76
2022/07/28 04:16:26;;;;;;;14.27;8.40;;;;;;;21.11;68.88;93763.69;5124455;28;20031;-76
2022/07/28 04:18:52;;;;;;;9.48;7.93;;;;;;;21.11;69.09;93756.34;5124762;28;20034;-76
2022/07/28 04:21:17;;;;;;;11.65;8.68;;;;;;;21.13;69.09;93758.66;5124495;28;20194;-76
2022/07/28 04:23:43;;;;;;;12.20;8.50;;;;;;;21.08;71.63;93780.69;5124384;28;20035;-76
2022/07/28 04:26:08;;;;;;;14.88;9.38;;;;;;;20.69;71.82;93786.72;5124356;28;20310;-77
2022/07/28 04:28:33;;;;;;;18.88;12.20;;;;;;;20.35;74.85;93814.72;5124729;28;20084;-76
2022/07/28 04:30:59;;;;;;;15.90;10.98;;;;;;;20.12;76.61;93852.81;5124612;28;20381;-77
2022/07/28 04:33:24;;;;;;;16.88;11.63;;;;;;;19.75;79.65;93867.13;5124066;28;20015;-76
2022/07/28 04:35:51;;;;;;;18.27;13.27;;;;;;;19.56;81.95;93875.38;5124287;28;20262;-76
2022/07/28 04:38:19;;;;;;;16.65;13.52;;;;;;;19.40;83.07;93884.50;5124287;28;20124;-76
2022/07/28 04:40:45;;;;;;;21.75;15.30;;;;;;;19.30;84.27;93893.25;5124112;28;20030;-76
2022/07/28 04:43:11;;;;;;;21.38;14.35;;;;;;;19.29;84.19;93890.91;5124176;28;20238;-76
2022/07/28 04:45:37;;;;;;;22.30;13.57;;;;;;;19.29;84.20;93894.38;5124030;28;20020;-76
2022/07/28 04:48:03;;;;;;;17.88;12.70;;;;;;;19.35;84.06;93898.31;5124209;28;20024;-76
2022/07/28 04:50:28;;;;;;;18.23;11.23;;;;;;;19.26;83.30;93908.66;5124197;28;20031;-76
2022/07/28 04:52:54;;;;;;;14.27;11.23;;;;;;;19.28;83.22;93900.94;5123816;28;20254;-76
2022/07/28 04:55:19;;;;;;;15.02;11.93;;;;;;;19.24;83.60;93892.03;5123478;28;20210;-76
2022/07/28 04:57:45;;;;;;;14.40;11.75;;;;;;;19.22;84.07;93897.00;5123532;28;20024;-76
2022/07/28 05:00:12;;;;;;;16.15;9.25;;;;;;;19.11;80.37;93893.38;5123627;28;20023;-76
2022/07/28 05:02:41;;;;;;;12.07;9.68;;;;;;;19.20;80.92;93885.78;5124001;28;20309;-75
2022/07/28 05:05:07;;;;;;;14.93;10.00;;;;;;;19.26;80.30;93878.16;5123725;28;20024;-76
2022/07/28 05:07:33;;;;;;;12.25;9.25;;;;;;;19.31;80.56;93872.41;5122286;28;20024;-76
2022/07/28 05:09:58;;;;;;;20.80;10.80;;;;;;;19.35;81.62;93865.91;5123829;28;20056;-76
2022/07/28 05:12:23;;;;;;;15.52;10.40;;;;;;;19.44;80.69;93868.34;5123666;28;20091;-77
2022/07/28 05:14:49;;;;;;;13.77;10.48;;;;;;;19.46;81.54;93882.25;5123632;28;20361;-77
2022/07/28 05:17:14;;;;;;;16.55;11.00;;;;;;;19.43;81.06;93883.75;5123269;28;20215;-84
2022/07/28 05:19:40;;;;;;;15.55;9.82;;;;;;;19.33;80.99;93887.09;5123508;28;20031;-85
2022/07/28 05:22:05;;;;;;;15.80;10.73;;;;;;;19.34;81.59;93885.97;5122323;28;20241;-85
2022/07/28 05:24:31;;;;;;;13.57;10.32;;;;;;;19.44;82.04;93896.13;5123522;28;20336;-82
2022/07/28 05:26:56;;;;;;;18.73;10.48;;;;;;;19.47;80.77;93899.25;5123281;28;20015;-81
2022/07/28 05:29:22;;;;;;;12.55;9.23;;;;;;;19.40;81.78;93905.34;5123408;28;20097;-82
2022/07/28 05:31:47;;;;;;;14.68;10.65;;;;;;;19.47;82.40;93905.41;5123420;28;20035;-82
2022/07/28 05:34:13;;;;;;;14.23;9.57;;;;;;;19.54;82.00;93926.34;5123171;28;20050;-81
2022/07/28 05:36:38;;;;;;;13.77;9.50;;;;;;;19.62;82.00;93915.28;5123193;28;20139;-80
2022/07/28 05:39:04;;;;;;;15.95;10.02;;;;;;;19.73;79.72;93907.28;5122948;28;20019;-80
2022/07/28 05:41:29;;;;;;;15.80;10.15;;;;;;;19.84;78.44;93902.78;5123302;28;20015;-82
2022/07/28 05:43:57;;;;;;;15.25;9.40;;;;;;;20.03;78.38;93915.34;5122944;28;20020;-81
2022/07/28 05:46:22;;;;;;;14.82;10.65;;;;;;;20.30;79.12;93917.91;5123017;28;20164;-82
2022/07/28 05:48:48;;;;;;;13.85;9.88;;;;;;;20.44;76.28;93915.31;5121611;28;20361;-82
2022/07/28 05:51:13;;;;;;;12.10;9.93;;;;;;;20.51;74.63;93900.28;5122854;28;20043;-81
2022/07/28 05:53:39;;;;;;;16.17;10.02;;;;;;;20.59;76.24;93897.28;5122986;28;20046;-87
2022/07/28 05:56:05;;;;;;;14.10;10.75;;;;;;;20.62;75.09;93899.25;5123123;28;20083;-85
2022/07/28 05:58:30;;;;;;;21.23;10.77;;;;;;;20.67;74.42;93889.22;5123264;28;20023;-86
2022/07/28 06:01:02;;;;;;;15.35;10.77;;;;;;;20.71;75.18;93901.63;5122516;28;20024;-85
2022/07/28 06:03:30;;;;;;;16.35;10.80;;;;;;;20.73;75.83;93896.63;5122802;28;20034;-83
2022/07/28 06:05:56;;;;;;;14.43;10.85;;;;;;;20.88;74.72;93892.06;5122653;28;20047;-83
2022/07/28 06:08:24;;;;;;;15.75;11.52;;;;;;;20.92;74.87;93892.84;5126653;28;20080;-83
2022/07/28 06:11:08;;;;;;;18.55;12.75;;;;;;;20.99;76.14;93890.19;5126975;28;20325;-83
2022/07/28 06:13:38;;;;;;;15.20;12.25;;;;;;;21.01;74.21;93885.19;5127003;28;20023;-83
2022/07/28 06:16:04;;;;;;;15.90;11.38;;;;;;;21.03;73.30;93890.22;5126987;28;20019;-81
2022/07/28 06:18:30;;;;;;;17.10;12.13;;;;;;;21.07;73.48;93898.38;5125505;28;20111;-81
2022/07/28 06:20:56;;;;;;;15.50;11.88;;;;;;;21.13;75.02;93886.81;5125697;28;20099;-82
2022/07/28 06:23:23;;;;;;;19.48;12.00;;;;;;;21.25;73.28;93888.41;5126651;28;20111;-83
2022/07/28 06:25:50;;;;;;;15.98;11.82;;;;;;;21.35;74.02;93887.69;5126882;28;20041;-83
2022/07/28 06:28:17;;;;;;;17.42;12.10;;;;;;;21.49;72.69;93888.91;5125631;28;20027;-83
2022/07/28 06:30:43;;;;;;;15.18;11.52;;;;;;;21.62;71.25;93907.19;5126594;28;20043;-83
2022/07/28 06:33:08;;;;;;;15.23;11.20;;;;;;;21.53;71.08;93908.69;5126631;28;20019;-83
2022/07/28 06:35:34;;;;;;;14.00;11.10;;;;;;;21.52;71.61;93902.50;5126647;28;20026;-83
2022/07/28 06:37:59;;;;;;;14.95;10.00;;;;;;;21.56;71.69;93891.66;5126460;28;20026;-83
2022/07/28 06:40:25;;;;;;;12.90;10.10;;;;;;;21.67;70.99;93892.47;5126114;28;20023;-83
2022/07/28 06:42:50;;;;;;;15.55;10.18;;;;;;;21.78;70.03;93890.56;5126522;28;20026;-84
2022/07/28 06:45:17;;;;;;;17.38;10.15;;;;;;;21.88;69.41;93901.81;5126338;27;20024;-83
2022/07/28 06:47:43;;;;;;;12.30;9.88;;;;;;;21.87;68.20;93890.19;5124976;28;20076;-83
2022/07/28 06:50:08;;;;;;;11.38;9.45;;;;;;;21.98;66.13;93884.78;5126100;28;20024;-84
2022/07/28 06:52:35;;;;;;;13.85;9.55;;;;;;;21.98;68.02;93884.78;5126424;28;20084;-84
2022/07/28 06:55:05;;;;;;;17.58;11.10;;;;;;;22.08;69.37;93886.75;5126342;28;20019;-84
2022/07/28 06:57:33;;;;;;;17.98;10.93;;;;;;;22.08;67.83;93889.47;5125425;28;20091;-85
2022/07/28 07:00:01;;;;;;;13.68;10.57;;;;;;;22.12;68.25;93894.91;5124551;28;20028;-86
2022/07/28 07:02:27;;;;;;;17.50;11.20;;;;;;;22.09;66.42;93906.53;5124933;28;20219;-86
2022/07/28 07:04:53;;;;;;;15.52;10.77;;;;;;;21.91;67.35;93901.06;5125577;27;20138;-86
2022/07/28 07:07:20;;;;;;;20.23;11.20;;;;;;;22.07;68.22;93906.91;5126251;28;20027;-86
2022/07/28 07:09:45;;;;;;;21.65;12.57;;;;;;;22.15;67.94;93907.72;5126235;27;20222;-86
2022/07/28 07:12:11;;;;;;;23.55;13.00;;;;;;;22.16;67.84;93903.81;5126092;28;20023;-86
2022/07/28 07:14:36;;;;;;;21.80;11.35;;;;;;;22.26;66.66;93905.81;5125988;28;20041;-86
2022/07/28 07:17:02;;;;;;;18.75;11.48;;;;;;;22.31;66.49;93912.78;5125755;28;20291;-86
2022/07/28 07:19:27;;;;;;;15.80;11.60;;;;;;;22.29;66.60;93906.97;5125572;28;20377;-79
2022/07/28 07:21:53;;;;;;;19.80;12.13;;;;;;;22.32;66.38;93898.06;5126229;28;20011;-86
2022/07/28 07:24:18;;;;;;;19.77;12.25;;;;;;;22.42;66.01;93897.28;5125942;28;20030;-85
2022/07/28 07:26:43;;;;;;;16.70;10.70;;;;;;;22.59;64.39;93901.97;5125837;28;20115;-83
2022/07/28 07:29:09;;;;;;;15.00;10.98;;;;;;;22.72;64.10;93898.84;5125403;28;20023;-87
2022/07/28 07:31:36;;;;;;;16.45;12.25;;;;;;;22.86;65.02;93909.69;5124362;28;20023;-82
2022/07/28 07:34:02;;;;;;;18.98;11.65;;;;;;;23.00;66.34;93906.97;5125563;28;20026;-91
2022/07/28 07:36:28;;;;;;;17.33;11.52;;;;;;;23.02;63.63;93915.53;5126144;28;20047;-88
2022/07/28 07:38:54;;;;;;;20.20;11.68;;;;;;;23.07;61.72;93914.34;5126168;28;20019;-83
2022/07/28 07:41:19;;;;;;;18.58;12.10;;;;;;;23.13;63.26;93920.94;5125303;28;20363;-84
2022/07/28 07:43:45;;;;;;;21.13;12.50;;;;;;;23.19;62.99;93926.75;5125196;28;20019;-87
2022/07/28 07:46:11;;;;;;;25.70;12.88;;;;;;;23.31;62.75;93923.63;5125354;28;20069;-85
2022/07/28 07:48:36;;;;;;;17.60;12.70;;;;;;;23.28;62.44;93918.19;5123675;28;20015;-83
2022/07/28 07:51:02;;;;;;;21.92;11.32;;;;;;;23.37;61.77;93934.88;5125355;28;20031;-86
2022/07/28 07:53:27;;;;;;;16.23;12.85;;;;;;;23.49;61.65;93931.75;5124952;28;20041;-86
2022/07/28 07:55:53;;;;;;;27.25;14.23;;;;;;;23.63;61.57;93944.53;5125102;28;20027;-83
2022/07/28 07:58:18;;;;;;;20.50;12.90;;;;;;;23.59;60.34;93944.53;5124922;28;20047;-83
2022/07/28 08:00:44;;;;;;;22.35;12.05;;;;;;;23.64;60.37;93951.50;5123804;28;20274;-90
2022/07/28 08:03:09;;;;;;;17.05;12.70;;;;;;;23.63;60.74;93953.44;5125163;28;20019;-85
2022/07/28 08:05:35;;;;;;;15.75;12.13;;;;;;;23.68;60.13;93944.09;5123736;28;20023;-82
2022/07/28 08:08:00;;;;;;;15.85;11.48;;;;;;;23.63;60.25;93955.41;5125260;27;20020;-85
2022/07/28 08:10:26;;;;;;;15.88;12.73;;;;;;;23.75;60.52;93951.44;5123892;28;20043;-85
2022/07/28 08:12:51;;;;;;;21.70;12.75;;;;;;;23.86;59.58;93949.50;5124942;28;20019;-86
2022/07/28 08:15:17;;;;;;;20.85;12.13;;;;;;;23.96;59.13;93950.63;5124243;28;20020;-85
2022/07/28 08:17:42;;;;;;;19.17;11.88;;;;;;;23.99;58.91;93956.03;5125097;28;20036;-83
2022/07/28 08:20:08;;;;;;;17.02;12.43;;;;;;;24.00;60.88;93945.94;5123620;28;20310;-84
2022/07/28 08:22:34;;;;;;;21.42;12.05;;;;;;;24.11;61.67;93952.09;5124933;28;20020;-84
2022/07/28 08:25:00;;;;;;;15.45;11.35;;;;;;;24.20;59.42;93944.28;5125115;28;20027;-89
2022/07/28 08:27:26;;;;;;;19.85;11.02;;;;;;;24.31;58.38;93959.78;5124795;28;20031;-85
2022/07/28 08:29:51;;;;;;;19.65;11.73;;;;;;;24.33;57.92;93951.97;5125001;28;20270;-88
2022/07/28 08:32:17;;;;;;;20.02;12.20;;;;;;;24.48;57.73;93958.88;5125765;28;20093;-89
2022/07/28 08:34:42;;;;;;;31.10;12.43;;;;;;;24.61;59.07;93972.84;5125993;27;20220;-89
2022/07/28 08:37:08;;;;;;;15.20;11.50;;;;;;;24.71;58.14;93971.19;5126101;28;20317;-87
2022/07/28 08:39:34;;;;;;;20.85;12.13;;;;;;;24.76;57.74;93965.34;5123704;28;20043;-85
2022/07/28 08:42:11;;;;;;;19.08;12.68;;;;;;;24.75;57.68;93974.69;5124064;28;20317;-85
2022/07/28 08:45:00;;;;;;;19.77;13.73;;;;;;;24.80;58.10;93979.72;5124065;28;20011;-85
2022/07/28 08:47:29;;;;;;;16.05;11.60;;;;;;;24.81;56.80;93975.81;5123765;28;20077;-86
2022/07/28 08:49:56;;;;;;;15.80;12.48;;;;;;;24.75;56.48;93980.13;5124117;28;20057;-84
2022/07/28 08:52:23;;;;;;;19.63;12.98;;;;;;;24.72;57.12;93983.66;5124366;28;20020;-85
2022/07/28 08:54:52;;;;;;;17.33;12.85;;;;;;;24.79;56.13;93986.31;5123824;28;20023;-87
2022/07/28 08:57:40;;;;;;;18.40;11.95;;;;;;;24.84;58.04;93980.47;5124124;28;20020;-84
2022/07/28 09:00:08;;;;;;;17.60;12.30;;;;;;;24.94;59.23;93984.28;5123775;28;20026;-87
2022/07/28 09:02:39;;;;;;;19.05;11.82;;;;;;;25.02;57.48;93989.28;5123843;28;20015;-82
2022/07/28 09:05:06;;;;;;;21.75;11.32;;;;;;;25.14;55.69;93992.69;5123386;28;20015;-82
2022/07/28 09:07:36;;;;;;;15.73;11.10;;;;;;;25.35;56.57;93991.75;5123747;28;20026;-88
2022/07/28 09:10:04;;;;;;;17.10;11.77;;;;;;;25.42;57.89;93987.00;5124141;28;20090;-91
2022/07/28 09:12:35;;;;;;;23.98;12.13;;;;;;;25.45;58.70;93990.09;5124217;28;20193;-86
2022/07/28 09:15:05;;;;;;;19.60;12.73;;;;;;;25.50;58.03;93995.88;5124628;28;20310;-86
2022/07/28 09:17:32;;;;;;;16.23;11.60;;;;;;;25.64;57.36;93989.50;5123848;28;20035;-87
2022/07/28 09:19:57;;;;;;;19.88;13.70;;;;;;;25.66;56.43;93981.69;5123428;28;20023;-91
2022/07/28 09:22:23;;;;;;;21.13;12.32;;;;;;;25.74;55.67;93985.88;5124005;28;20041;-89
2022/07/28 09:24:49;;;;;;;21.02;11.75;;;;;;;25.83;55.26;93982.69;5123778;28;20024;-92
2022/07/28 09:27:15;;;;;;;20.17;12.70;;;;;;;25.91;55.08;93978.72;5123757;28;20015;-88
2022/07/28 09:29:44;;;;;;;24.48;12.80;;;;;;;25.99;54.38;93973.91;5123767;28;20019;-91
2022/07/28 09:32:12;;;;;;;22.08;12.10;;;;;;;25.99;53.65;93976.66;5123836;28;20019;-91
2022/07/28 09:34:43;;;;;;;22.67;13.25;;;;;;;26.05;54.12;93975.00;5123587;28;20029;-91
2022/07/28 09:37:19;;;;;;;18.35;12.25;;;;;;;26.14;55.02;93985.47;5123705;28;20019;-92
2022/07/28 09:39:46;;;;;;;16.70;12.82;;;;;;;26.19;55.12;93988.47;5123337;28;20086;-89
2022/07/28 09:42:12;;;;;;;23.85;13.43;;;;;;;26.23;55.79;93981.00;5124096;28;20027;-91
2022/07/28 09:44:38;;;;;;;18.10;12.07;;;;;;;26.27;54.35;93972.00;5123828;28;20198;-95
2022/07/28 09:47:25;;;;;;;22.70;13.02;;;;;;;26.36;53.06;93964.88;5124077;28;20023;-92
2022/07/28 09:49:51;;;;;;;20.25;11.55;;;;;;;26.43;52.87;93978.41;5124104;28;20020;-94
2022/07/28 09:52:37;;;;;;;14.98;12.15;;;;;;;26.60;52.03;93986.78;5124176;28;20019;-84
2022/07/28 09:55:10;;;;;;;18.52;13.48;;;;;;;26.59;51.48;93985.25;5123514;28;20045;-84
2022/07/28 09:57:39;;;;;;;24.38;13.25;;;;;;;26.66;51.51;93967.97;5124114;28;20213;-87
2022/07/28 10:00:08;;;;;;;19.65;14.57;;;;;;;26.69;51.46;93976.13;5122074;28;20026;-90
2022/07/28 10:02:35;;;;;;;21.50;13.77;;;;;;;26.89;50.94;93976.22;5124104;28;20073;-93
2022/07/28 10:05:03;;;;;;;21.05;14.65;;;;;;;27.07;50.86;93977.88;5123825;28;20020;-90
2022/07/28 10:07:29;;;;;;;20.30;13.43;;;;;;;27.08;48.45;93982.19;5123602;28;20030;-91
2022/07/28 10:09:56;;;;;;;18.80;12.45;;;;;;;27.00;47.35;93979.53;5123307;28;20081;-90
2022/07/28 10:12:27;;;;;;;20.90;13.80;;;;;;;26.94;48.54;93980.44;5121846;28;20075;-84
2022/07/28 10:14:54;;;;;;;15.73;12.88;;;;;;;26.93;49.98;93971.47;5121787;28;20047;-84
2022/07/28 10:17:33;;;;;;;22.33;13.82;;;;;;;27.03;50.44;93969.75;5123006;28;20264;-88
2022/07/28 10:20:00;;;;;;;17.40;13.38;;;;;;;27.15;50.73;93973.84;5123833;28;20011;-90
2022/07/28 10:22:31;;;;;;;24.55;13.18;;;;;;;27.30;50.33;93977.91;5124268;28;20015;-89
2022/07/28 10:25:00;;;;;;;19.00;12.93;;;;;;;27.31;50.76;93971.25;5124156;28;20023;-90
2022/07/28 10:27:27;;;;;;;22.52;12.93;;;;;;;27.41;51.16;93964.03;5123892;28;20322;-89
2022/07/28 10:29:57;;;;;;;19.63;13.38;;;;;;;27.54;50.62;93978.66;5123937;28;20016;-90
2022/07/28 10:32:24;;;;;;;21.45;13.40;;;;;;;27.67;49.53;93973.34;5123708;28;20019;-90
2022/07/28 10:34:54;;;;;;;23.95;14.70;;;;;;;27.71;48.05;93965.81;5122867;28;20091;-90
2022/07/28 10:37:22;;;;;;;22.02;13.57;;;;;;;27.76;48.85;93965.34;5124197;28;20218;-91
2022/07/28 10:40:00;;;;;;;21.15;14.30;;;;;;;27.78;48.94;93967.66;5124264;28;20031;-91
2022/07/28 10:42:27;;;;;;;18.35;14.05;;;;;;;27.87;49.27;93969.88;5124873;28;20031;-89
2022/07/28 10:44:54;;;;;;;19.65;13.27;;;;;;;27.85;49.04;93967.53;5124119;28;20093;-90
2022/07/28 10:47:20;;;;;;;18.88;13.02;;;;;;;27.75;49.72;93961.06;5123910;28;20023;-90
2022/07/28 10:49:49;;;;;;;16.27;13.30;;;;;;;27.75;48.89;93958.31;5125397;28;20310;-94
2022/07/28 10:52:17;;;;;;;20.70;13.95;;;;;;;27.81;48.54;93962.09;5124710;28;20030;-88
2022/07/28 10:54:55;;;;;;;24.48;13.98;;;;;;;27.95;49.10;93954.84;5128596;28;20023;-87
2022/07/28 10:57:23;;;;;;;24.25;15.43;;;;;;;28.02;47.50;93952.72;5127161;28;20023;-86
2022/07/28 11:00:16;;;;;;;23.33;14.60;;;;;;;28.02;48.62;93952.72;5126173;28;20328;-85
2022/07/28 11:02:47;;;;;;;20.02;14.32;;;;;;;28.11;49.15;93943.16;5126727;28;20096;-86
2022/07/28 11:05:39;;;;;;;23.15;13.60;;;;;;;28.23;48.44;93941.72;5125354;28;20043;-87
2022/07/28 11:08:06;;;;;;;18.08;13.30;;;;;;;28.28;47.36;93941.22;5125404;28;20053;-91
2022/07/28 11:11:01;;;;;;;26.67;11.82;;;;;;;28.38;46.09;93932.78;5128497;28;20102;-90
2022/07/28 11:13:34;;;;;;;19.95;11.98;;;;;;;28.49;47.41;93926.28;5124034;28;20076;-91
2022/07/28 11:16:11;;;;;;;21.95;12.45;;;;;;;28.64;47.13;93927.53;5128402;28;20016;-90
2022/07/28 11:19:02;;;;;;;25.17;13.13;;;;;;;28.76;46.68;93928.78;5126613;28;20056;-91
2022/07/28 11:21:27;;;;;;;21.80;10.95;;;;;;;28.83;46.26;93917.66;5127396;28;20073;-90
2022/07/28 11:23:55;;;;;;;14.73;10.90;;;;;;;28.95;45.93;93905.25;5127687;28;20314;-89
2022/07/28 11:26:23;;;;;;;19.77;10.90;;;;;;;29.03;45.55;93901.13;5126547;28;20234;-90